sensor_id;sensor_type;location;lat;lon;timestamp;pressure;altitude;pressure_sealevel;temperature;humidity
56668;BME280;42542;48.360;10.958;2023-02-18T00:01:49;96985.41;;;10.57;87.85
56668;BME280;42542;48.360;10.958;2023-02-18T00:04:53;96985.41;;;10.57;88.20
56668;BME280;42542;48.360;10.958;2023-02-18T00:07:55;96987.09;;;10.59;88.53
56668;BME280;42542;48.360;10.958;2023-02-18T00:10:56;96984.25;;;10.60;88.64
56668;BME280;42542;48.360;10.958;2023-02-18T00:14:01;96974.41;;;10.61;87.88
56668;BME280;42542;48.360;10.958;2023-02-18T00:17:03;96977.78;;;10.63;88.38
56668;BME280;42542;48.360;10.958;2023-02-18T00:20:05;96966.25;;;10.62;87.71
56668;BME280;42542;48.360;10.958;2023-02-18T00:23:07;96988.75;;;10.69;87.78
56668;BME280;42542;48.360;10.958;2023-02-18T00:26:14;96975.38;;;10.69;87.80
56668;BME280;42542;48.360;10.958;2023-02-18T00:29:17;96971.88;;;10.69;87.75
56668;BME280;42542;48.360;10.958;2023-02-18T00:32:19;96973.41;;;10.71;87.27
56668;BME280;42542;48.360;10.958;2023-02-18T00:35:20;96974.13;;;10.73;87.11
56668;BME280;42542;48.360;10.958;2023-02-18T00:38:22;96962.41;;;10.74;87.27
56668;BME280;42542;48.360;10.958;2023-02-18T00:41:26;96971.16;;;10.76;87.03
56668;BME280;42542;48.360;10.958;2023-02-18T00:44:27;96977.19;;;10.78;86.90
56668;BME280;42542;48.360;10.958;2023-02-18T00:47:30;96976.22;;;10.79;86.89
56668;BME280;42542;48.360;10.958;2023-02-18T00:50:33;96958.34;;;10.80;86.72
56668;BME280;42542;48.360;10.958;2023-02-18T00:53:36;96969.72;;;10.82;86.57
56668;BME280;42542;48.360;10.958;2023-02-18T00:56:38;96971.53;;;10.81;86.11
56668;BME280;42542;48.360;10.958;2023-02-18T00:59:40;96963.53;;;10.81;86.54
56668;BME280;42542;48.360;10.958;2023-02-18T01:02:41;96959.72;;;10.84;85.83
56668;BME280;42542;48.360;10.958;2023-02-18T01:05:43;96956.91;;;10.85;86.11
56668;BME280;42542;48.360;10.958;2023-02-18T01:08:45;96959.72;;;10.84;85.92
56668;BME280;42542;48.360;10.958;2023-02-18T01:11:46;96959.88;;;10.82;85.89
56668;BME280;42542;48.360;10.958;2023-02-18T01:14:48;96959.88;;;10.82;86.49
56668;BME280;42542;48.360;10.958;2023-02-18T01:17:50;96954.50;;;10.82;86.00
56668;BME280;42542;48.360;10.958;2023-02-18T01:20:52;96960.00;;;10.81;86.80
56668;BME280;42542;48.360;10.958;2023-02-18T01:23:54;96952.81;;;10.81;86.86
56668;BME280;42542;48.360;10.958;2023-02-18T01:26:55;96951.97;;;10.81;86.40
56668;BME280;42542;48.360;10.958;2023-02-18T01:29:57;96940.59;;;10.79;86.23
56668;BME280;42542;48.360;10.958;2023-02-18T01:32:58;96943.41;;;10.77;86.75
56668;BME280;42542;48.360;10.958;2023-02-18T01:36:01;96946.09;;;10.77;87.48
56668;BME280;42542;48.360;10.958;2023-02-18T01:39:04;96941.34;;;10.71;86.92
56668;BME280;42542;48.360;10.958;2023-02-18T01:42:06;96942.03;;;10.73;87.25
56668;BME280;42542;48.360;10.958;2023-02-18T01:51:41;96937.50;;;10.74;87.63
56668;BME280;42542;48.360;10.958;2023-02-18T01:54:47;96930.31;;;10.74;87.17
56668;BME280;42542;48.360;10.958;2023-02-18T01:57:49;96935.84;;;10.73;87.37
56668;BME280;42542;48.360;10.958;2023-02-18T02:00:51;96940.34;;;10.72;86.99
56668;BME280;42542;48.360;10.958;2023-02-18T02:03:53;96927.97;;;10.71;87.35
56668;BME280;42542;48.360;10.958;2023-02-18T02:06:55;96919.09;;;10.71;87.27
56668;BME280;42542;48.360;10.958;2023-02-18T02:09:58;96925.28;;;10.71;87.14
56668;BME280;42542;48.360;10.958;2023-02-18T02:13:19;96931.63;;;10.70;87.11
56668;BME280;42542;48.360;10.958;2023-02-18T02:29:48;96902.50;;;10.67;87.25
56668;BME280;42542;48.360;10.958;2023-02-18T02:36:43;96909.66;;;10.67;87.18
56668;BME280;42542;48.360;10.958;2023-02-18T02:46:39;96901.25;;;10.62;86.93
56668;BME280;42542;48.360;10.958;2023-02-18T02:53:18;96883.38;;;10.62;86.72
56668;BME280;42542;48.360;10.958;2023-02-18T02:56:24;96889.72;;;10.61;86.59
56668;BME280;42542;48.360;10.958;2023-02-18T02:59:28;96880.84;;;10.61;87.04
56668;BME280;42542;48.360;10.958;2023-02-18T03:16:52;96873.00;;;10.49;87.11
56668;BME280;42542;48.360;10.958;2023-02-18T03:20:19;96875.28;;;10.44;86.17
56668;BME280;42542;48.360;10.958;2023-02-18T03:23:27;96864.72;;;10.43;86.19
56668;BME280;42542;48.360;10.958;2023-02-18T03:26:35;96870.94;;;10.43;85.83
56668;BME280;42542;48.360;10.958;2023-02-18T03:29:41;96866.00;;;10.39;85.87
56668;BME280;42542;48.360;10.958;2023-02-18T03:32:46;96879.34;;;10.39;85.84
56668;BME280;42542;48.360;10.958;2023-02-18T03:35:52;96865.16;;;10.38;85.91
56668;BME280;42542;48.360;10.958;2023-02-18T03:38:59;96881.03;;;10.40;85.41
56668;BME280;42542;48.360;10.958;2023-02-18T03:42:02;96875.16;;;10.36;85.86
56668;BME280;42542;48.360;10.958;2023-02-18T03:45:04;96879.53;;;10.37;85.80
56668;BME280;42542;48.360;10.958;2023-02-18T03:48:08;96873.63;;;10.34;86.13
56668;BME280;42542;48.360;10.958;2023-02-18T03:51:10;96868.25;;;10.34;86.51
56668;BME280;42542;48.360;10.958;2023-02-18T03:54:12;96868.13;;;10.35;86.49
56668;BME280;42542;48.360;10.958;2023-02-18T03:57:17;96878.69;;;10.37;86.86
56668;BME280;42542;48.360;10.958;2023-02-18T04:00:19;96869.50;;;10.39;87.21
56668;BME280;42542;48.360;10.958;2023-02-18T04:03:21;96874.84;;;10.39;87.24
56668;BME280;42542;48.360;10.958;2023-02-18T04:06:23;96873.34;;;10.37;87.14
56668;BME280;42542;48.360;10.958;2023-02-18T04:09:26;96885.41;;;10.41;87.04
56668;BME280;42542;48.360;10.958;2023-02-18T04:12:27;96878.50;;;10.38;87.37
56668;BME280;42542;48.360;10.958;2023-02-18T04:15:30;96886.69;;;10.37;86.86
56668;BME280;42542;48.360;10.958;2023-02-18T04:18:33;96892.88;;;10.37;86.97
56668;BME280;42542;48.360;10.958;2023-02-18T04:21:35;96890.03;;;10.39;86.98
56668;BME280;42542;48.360;10.958;2023-02-18T04:24:38;96897.22;;;10.38;87.46
56668;BME280;42542;48.360;10.958;2023-02-18T04:27:40;96890.22;;;10.37;86.80
56668;BME280;42542;48.360;10.958;2023-02-18T04:30:43;96889.06;;;10.40;87.71
56668;BME280;42542;48.360;10.958;2023-02-18T04:33:46;96890.03;;;10.39;87.73
56668;BME280;42542;48.360;10.958;2023-02-18T04:36:47;96895.56;;;10.37;87.58
56668;BME280;42542;48.360;10.958;2023-02-18T04:39:50;96892.31;;;10.34;87.69
56668;BME280;42542;48.360;10.958;2023-02-18T04:42:51;96899.03;;;10.38;87.72
56668;BME280;42542;48.360;10.958;2023-02-18T04:45:53;96910.75;;;10.37;88.01
56668;BME280;42542;48.360;10.958;2023-02-18T04:48:55;96912.00;;;10.33;88.05
56668;BME280;42542;48.360;10.958;2023-02-18T04:51:57;96907.50;;;10.33;87.17
56668;BME280;42542;48.360;10.958;2023-02-18T04:54:59;96897.78;;;10.32;88.21
56668;BME280;42542;48.360;10.958;2023-02-18T04:58:01;96905.81;;;10.32;87.79
56668;BME280;42542;48.360;10.958;2023-02-18T05:01:03;96905.28;;;10.29;87.65
56668;BME280;42542;48.360;10.958;2023-02-18T05:04:05;96898.78;;;10.31;87.49
56668;BME280;42542;48.360;10.958;2023-02-18T05:07:07;96899.09;;;10.28;87.57
56668;BME280;42542;48.360;10.958;2023-02-18T05:10:13;96893.88;;;10.27;87.82
56668;BME280;42542;48.360;10.958;2023-02-18T05:13:15;96891.06;;;10.28;87.55
56668;BME280;42542;48.360;10.958;2023-02-18T05:16:17;96885.88;;;10.27;87.74
56668;BME280;42542;48.360;10.958;2023-02-18T05:19:20;96883.31;;;10.25;87.67
56668;BME280;42542;48.360;10.958;2023-02-18T05:22:22;96879.94;;;10.23;87.91
56668;BME280;42542;48.360;10.958;2023-02-18T05:25:24;96878.44;;;10.21;87.54
56668;BME280;42542;48.360;10.958;2023-02-18T05:28:25;96892.50;;;10.23;87.11
56668;BME280;42542;48.360;10.958;2023-02-18T05:31:27;96887.44;;;10.20;87.91
56668;BME280;42542;48.360;10.958;2023-02-18T05:34:29;96889.81;;;10.23;87.35
56668;BME280;42542;48.360;10.958;2023-02-18T05:37:31;96884.63;;;10.21;87.41
56668;BME280;42542;48.360;10.958;2023-02-18T05:40:33;96877.28;;;10.23;87.13
56668;BME280;42542;48.360;10.958;2023-02-18T05:43:35;96872.09;;;10.22;86.98
56668;BME280;42542;48.360;10.958;2023-02-18T05:46:59;96881.09;;;10.21;87.61
56668;BME280;42542;48.360;10.958;2023-02-18T05:50:02;96885.59;;;10.20;86.63
56668;BME280;42542;48.360;10.958;2023-02-18T05:53:04;96889.50;;;10.16;87.15
56668;BME280;42542;48.360;10.958;2023-02-18T05:56:07;96889.13;;;10.21;86.75
56668;BME280;42542;48.360;10.958;2023-02-18T05:59:09;96899.94;;;10.19;86.99
56668;BME280;42542;48.360;10.958;2023-02-18T06:02:11;96910.50;;;10.21;86.60
56668;BME280;42542;48.360;10.958;2023-02-18T06:05:13;96908.66;;;10.21;86.87
56668;BME280;42542;48.360;10.958;2023-02-18T06:08:15;96908.66;;;10.21;87.00
56668;BME280;42542;48.360;10.958;2023-02-18T06:11:17;96906.84;;;10.22;86.81
56668;BME280;42542;48.360;10.958;2023-02-18T06:14:18;96907.09;;;10.18;86.93
56668;BME280;42542;48.360;10.958;2023-02-18T06:17:21;96911.19;;;10.23;86.71
56668;BME280;42542;48.360;10.958;2023-02-18T06:20:23;96911.19;;;10.23;86.95
56668;BME280;42542;48.360;10.958;2023-02-18T06:23:25;96904.56;;;10.17;86.38
56668;BME280;42542;48.360;10.958;2023-02-18T06:26:27;96904.31;;;10.20;87.24
56668;BME280;42542;48.360;10.958;2023-02-18T06:29:29;96903.88;;;10.15;87.56
56668;BME280;42542;48.360;10.958;2023-02-18T06:32:32;96904.97;;;10.12;87.32
56668;BME280;42542;48.360;10.958;2023-02-18T06:35:34;96900.91;;;10.08;87.54
56668;BME280;42542;48.360;10.958;2023-02-18T06:38:38;96898.53;;;10.05;88.54
56668;BME280;42542;48.360;10.958;2023-02-18T06:41:40;96897.81;;;10.03;87.69
56668;BME280;42542;48.360;10.958;2023-02-18T06:44:42;96895.13;;;10.03;88.02
56668;BME280;42542;48.360;10.958;2023-02-18T06:47:45;96891.75;;;10.01;88.58
56668;BME280;42542;48.360;10.958;2023-02-18T06:50:47;96890.94;;;10.01;88.82
56668;BME280;42542;48.360;10.958;2023-02-18T06:53:51;96886.41;;;10.01;88.37
56668;BME280;42542;48.360;10.958;2023-02-18T06:56:52;96883.91;;;10.00;88.43
56668;BME280;42542;48.360;10.958;2023-02-18T06:59:55;96889.09;;;10.01;88.32
56668;BME280;42542;48.360;10.958;2023-02-18T07:02:56;96881.91;;;10.02;88.17
56668;BME280;42542;48.360;10.958;2023-02-18T07:05:59;96885.44;;;10.02;88.27
56668;BME280;42542;48.360;10.958;2023-02-18T07:09:01;96889.94;;;10.02;88.49
56668;BME280;42542;48.360;10.958;2023-02-18T07:12:04;96878.25;;;10.03;88.27
56668;BME280;42542;48.360;10.958;2023-02-18T07:15:06;96888.94;;;10.03;88.28
56668;BME280;42542;48.360;10.958;2023-02-18T07:18:08;96886.16;;;10.04;87.84
56668;BME280;42542;48.360;10.958;2023-02-18T07:21:09;96882.50;;;10.05;87.83
56668;BME280;42542;48.360;10.958;2023-02-18T07:24:12;96895.72;;;10.07;87.82
56668;BME280;42542;48.360;10.958;2023-02-18T07:27:13;96893.72;;;10.09;87.68
56668;BME280;42542;48.360;10.958;2023-02-18T07:30:19;96900.75;;;10.10;87.58
56668;BME280;42542;48.360;10.958;2023-02-18T07:33:20;96905.81;;;10.13;87.42
56668;BME280;42542;48.360;10.958;2023-02-18T07:36:23;96909.03;;;10.16;86.99
56668;BME280;42542;48.360;10.958;2023-02-18T07:39:25;96898.25;;;10.18;87.38
56668;BME280;42542;48.360;10.958;2023-02-18T07:42:27;96890.09;;;10.20;86.83
56668;BME280;42542;48.360;10.958;2023-02-18T07:45:29;96890.63;;;10.23;86.87
56668;BME280;42542;48.360;10.958;2023-02-18T07:48:31;96880.78;;;10.24;86.83
56668;BME280;42542;48.360;10.958;2023-02-18T07:51:33;96873.63;;;10.24;86.87
56668;BME280;42542;48.360;10.958;2023-02-18T07:54:35;96874.19;;;10.28;86.07
56668;BME280;42542;48.360;10.958;2023-02-18T07:57:37;96869.38;;;10.31;85.91
56668;BME280;42542;48.360;10.958;2023-02-18T08:00:58;96874.47;;;10.34;86.27
56668;BME280;42542;48.360;10.958;2023-02-18T08:04:00;96864.47;;;10.36;85.94
56668;BME280;42542;48.360;10.958;2023-02-18T08:07:02;96860.50;;;10.40;85.07
56668;BME280;42542;48.360;10.958;2023-02-18T08:10:04;96866.44;;;10.44;85.07
56668;BME280;42542;48.360;10.958;2023-02-18T08:13:07;96859.09;;;10.46;85.35
56668;BME280;42542;48.360;10.958;2023-02-18T08:16:09;96864.00;;;10.50;85.31
56668;BME280;42542;48.360;10.958;2023-02-18T08:19:11;96853.00;;;10.53;84.60
56668;BME280;42542;48.360;10.958;2023-02-18T08:22:13;96858.22;;;10.55;84.61
56668;BME280;42542;48.360;10.958;2023-02-18T08:25:16;96847.91;;;10.60;83.95
56668;BME280;42542;48.360;10.958;2023-02-18T08:28:30;96846.66;;;10.64;84.77
56668;BME280;42542;48.360;10.958;2023-02-18T08:31:33;96846.50;;;10.66;84.13
56668;BME280;42542;48.360;10.958;2023-02-18T08:34:35;96856.63;;;10.72;83.89
56668;BME280;42542;48.360;10.958;2023-02-18T08:37:37;96837.91;;;10.72;83.26
56668;BME280;42542;48.360;10.958;2023-02-18T08:41:05;96848.13;;;10.76;82.38
56668;BME280;42542;48.360;10.958;2023-02-18T08:44:08;96844.88;;;10.82;82.78
56668;BME280;42542;48.360;10.958;2023-02-18T08:47:10;96842.06;;;10.84;83.16
56668;BME280;42542;48.360;10.958;2023-02-18T08:50:32;96836.41;;;10.87;82.13
56668;BME280;42542;48.360;10.958;2023-02-18T08:53:35;96848.34;;;10.92;81.70
56668;BME280;42542;48.360;10.958;2023-02-18T08:56:37;96822.44;;;10.93;81.60
56668;BME280;42542;48.360;10.958;2023-02-18T08:59:40;96831.84;;;10.97;81.33
56668;BME280;42542;48.360;10.958;2023-02-18T09:02:42;96828.75;;;11.02;80.97
56668;BME280;42542;48.360;10.958;2023-02-18T09:05:44;96822.94;;;11.06;80.97
56668;BME280;42542;48.360;10.958;2023-02-18T09:08:45;96826.97;;;11.10;80.73
56668;BME280;42542;48.360;10.958;2023-02-18T09:11:48;96825.69;;;11.14;80.19
56668;BME280;42542;48.360;10.958;2023-02-18T09:14:50;96815.69;;;11.16;80.41
56668;BME280;42542;48.360;10.958;2023-02-18T09:17:52;96813.41;;;11.21;79.72
56668;BME280;42542;48.360;10.958;2023-02-18T09:20:55;96809.03;;;11.20;79.30
56668;BME280;42542;48.360;10.958;2023-02-18T09:23:58;96795.38;;;11.23;78.68
56668;BME280;42542;48.360;10.958;2023-02-18T09:27:01;96796.59;;;11.29;78.56
56668;BME280;42542;48.360;10.958;2023-02-18T09:30:05;96795.13;;;11.34;78.66
56668;BME280;42542;48.360;10.958;2023-02-18T09:33:06;96787.66;;;11.38;78.15
56668;BME280;42542;48.360;10.958;2023-02-18T09:36:09;96786.84;;;11.46;78.36
56668;BME280;42542;48.360;10.958;2023-02-18T09:39:10;96791.44;;;11.53;77.63
56668;BME280;42542;48.360;10.958;2023-02-18T09:42:17;96794.34;;;11.60;77.68
56668;BME280;42542;48.360;10.958;2023-02-18T09:45:19;96787.41;;;11.67;76.92
56668;BME280;42542;48.360;10.958;2023-02-18T09:48:28;96768.03;;;11.73;75.94
56668;BME280;42542;48.360;10.958;2023-02-18T09:51:32;96781.81;;;11.78;75.52
56668;BME280;42542;48.360;10.958;2023-02-18T09:54:35;96768.94;;;11.82;75.23
56668;BME280;42542;48.360;10.958;2023-02-18T09:57:42;96778.88;;;11.89;75.19
56668;BME280;42542;48.360;10.958;2023-02-18T10:00:48;96770.41;;;11.94;74.44
56668;BME280;42542;48.360;10.958;2023-02-18T10:03:52;96775.97;;;12.00;74.91
56668;BME280;42542;48.360;10.958;2023-02-18T10:06:57;96765.09;;;12.02;74.37
56668;BME280;42542;48.360;10.958;2023-02-18T10:10:07;96763.63;;;12.07;73.83
56668;BME280;42542;48.360;10.958;2023-02-18T10:13:32;96765.81;;;12.12;73.86
56668;BME280;42542;48.360;10.958;2023-02-18T10:16:34;96779.59;;;12.17;73.44
56668;BME280;42542;48.360;10.958;2023-02-18T10:19:38;96759.31;;;12.15;73.32
56668;BME280;42542;48.360;10.958;2023-02-18T10:22:43;96738.06;;;12.21;73.15
56668;BME280;42542;48.360;10.958;2023-02-18T10:25:47;96753.66;;;12.26;72.64
56668;BME280;42542;48.360;10.958;2023-02-18T10:28:49;96743.94;;;12.25;72.33
56668;BME280;42542;48.360;10.958;2023-02-18T10:32:03;96749.28;;;12.25;72.45
56668;BME280;42542;48.360;10.958;2023-02-18T10:42:11;96736.28;;;12.30;72.08
56668;BME280;42542;48.360;10.958;2023-02-18T10:52:14;96706.69;;;12.47;71.86
56668;BME280;42542;48.360;10.958;2023-02-18T10:55:18;96683.22;;;12.49;71.70
56668;BME280;42542;48.360;10.958;2023-02-18T10:58:36;96698.19;;;12.60;71.25
56668;BME280;42542;48.360;10.958;2023-02-18T11:01:42;96703.91;;;12.65;71.35
56668;BME280;42542;48.360;10.958;2023-02-18T11:04:45;96702.56;;;12.69;71.04
56668;BME280;42542;48.360;10.958;2023-02-18T11:07:49;96699.22;;;12.75;70.29
56668;BME280;42542;48.360;10.958;2023-02-18T11:10:53;96699.44;;;12.82;70.35
56668;BME280;42542;48.360;10.958;2023-02-18T11:14:00;96693.41;;;12.88;70.08
56668;BME280;42542;48.360;10.958;2023-02-18T11:17:15;96702.31;;;12.97;70.67
56668;BME280;42542;48.360;10.958;2023-02-18T11:20:31;96700.44;;;12.97;69.01
56668;BME280;42542;48.360;10.958;2023-02-18T11:23:48;96689.91;;;12.96;68.40
56668;BME280;42542;48.360;10.958;2023-02-18T11:26:50;96688.38;;;12.93;68.32
56668;BME280;42542;48.360;10.958;2023-02-18T11:29:58;96677.50;;;12.95;68.47
56668;BME280;42542;48.360;10.958;2023-02-18T11:33:32;96674.28;;;12.91;68.37
56668;BME280;42542;48.360;10.958;2023-02-18T11:36:35;96670.59;;;12.92;68.11
56668;BME280;42542;48.360;10.958;2023-02-18T11:39:43;96686.53;;;12.94;68.58
56668;BME280;42542;48.360;10.958;2023-02-18T11:42:47;96664.91;;;12.87;67.92
56668;BME280;42542;48.360;10.958;2023-02-18T11:46:07;96677.81;;;12.91;68.28
56668;BME280;42542;48.360;10.958;2023-02-18T11:49:20;96663.41;;;12.93;68.18
56668;BME280;42542;48.360;10.958;2023-02-18T11:52:26;96656.34;;;12.91;68.02
56668;BME280;42542;48.360;10.958;2023-02-18T11:55:29;96660.56;;;12.94;68.53
56668;BME280;42542;48.360;10.958;2023-02-18T11:58:38;96652.97;;;12.89;68.45
56668;BME280;42542;48.360;10.958;2023-02-18T12:01:46;96656.19;;;12.93;68.41
56668;BME280;42542;48.360;10.958;2023-02-18T12:04:57;96654.66;;;12.90;68.01
56668;BME280;42542;48.360;10.958;2023-02-18T12:08:04;96629.50;;;12.91;68.33
56668;BME280;42542;48.360;10.958;2023-02-18T12:11:15;96635.25;;;12.97;68.67
56668;BME280;42542;48.360;10.958;2023-02-18T12:14:21;96617.25;;;12.97;68.97
56668;BME280;42542;48.360;10.958;2023-02-18T12:21:24;96629.19;;;13.03;67.55
56668;BME280;42542;48.360;10.958;2023-02-18T12:24:47;96609.41;;;13.04;67.57
56668;BME280;42542;48.360;10.958;2023-02-18T12:45:04;96611.63;;;13.24;65.91
56668;BME280;42542;48.360;10.958;2023-02-18T12:51:37;96597.00;;;13.35;65.24
56668;BME280;42542;48.360;10.958;2023-02-18T12:54:56;96597.66;;;13.37;64.54
56668;BME280;42542;48.360;10.958;2023-02-18T12:58:27;96590.78;;;13.35;64.67
56668;BME280;42542;48.360;10.958;2023-02-18T13:02:06;96598.69;;;13.28;64.23
56668;BME280;42542;48.360;10.958;2023-02-18T13:11:35;96587.63;;;13.23;65.14
56668;BME280;42542;48.360;10.958;2023-02-18T13:14:47;96589.97;;;13.18;65.48
56668;BME280;42542;48.360;10.958;2023-02-18T13:17:50;96584.25;;;13.21;65.52
56668;BME280;42542;48.360;10.958;2023-02-18T13:21:00;96594.47;;;13.25;66.03
56668;BME280;42542;48.360;10.958;2023-02-18T13:24:09;96597.16;;;13.25;65.83
56668;BME280;42542;48.360;10.958;2023-02-18T13:33:31;96574.38;;;13.13;65.35
56668;BME280;42542;48.360;10.958;2023-02-18T13:40:14;96582.41;;;13.13;66.40
56668;BME280;42542;48.360;10.958;2023-02-18T13:46:28;96571.66;;;13.05;65.47
56668;BME280;42542;48.360;10.958;2023-02-18T13:49:34;96576.69;;;13.08;65.83
56668;BME280;42542;48.360;10.958;2023-02-18T13:52:38;96575.69;;;13.09;66.34
56668;BME280;42542;48.360;10.958;2023-02-18T14:02:55;96581.91;;;13.02;64.78
56668;BME280;42542;48.360;10.958;2023-02-18T14:05:57;96582.75;;;13.02;64.97
56668;BME280;42542;48.360;10.958;2023-02-18T14:09:33;96577.38;;;13.02;65.30
56668;BME280;42542;48.360;10.958;2023-02-18T14:15:56;96595.47;;;13.08;65.14
56668;BME280;42542;48.360;10.958;2023-02-18T14:19:00;96574.16;;;13.07;65.35
56668;BME280;42542;48.360;10.958;2023-02-18T14:25:35;96577.69;;;13.07;64.88
56668;BME280;42542;48.360;10.958;2023-02-18T14:32:03;96571.50;;;13.07;64.63
56668;BME280;42542;48.360;10.958;2023-02-18T14:35:37;96573.16;;;13.08;64.79
56668;BME280;42542;48.360;10.958;2023-02-18T14:43:11;96568.81;;;13.07;64.97
56668;BME280;42542;48.360;10.958;2023-02-18T14:46:34;96569.81;;;13.06;65.18
56668;BME280;42542;48.360;10.958;2023-02-18T14:49:42;96568.31;;;13.03;65.46
56668;BME280;42542;48.360;10.958;2023-02-18T14:52:52;96565.97;;;13.00;65.54
56668;BME280;42542;48.360;10.958;2023-02-18T14:56:01;96570.47;;;13.00;66.09
56668;BME280;42542;48.360;10.958;2023-02-18T14:59:04;96567.13;;;12.98;66.38
56668;BME280;42542;48.360;10.958;2023-02-18T15:02:22;96562.78;;;12.97;66.67
56668;BME280;42542;48.360;10.958;2023-02-18T15:05:28;96568.63;;;13.00;66.29
56668;BME280;42542;48.360;10.958;2023-02-18T15:08:36;96553.38;;;13.01;66.37
56668;BME280;42542;48.360;10.958;2023-02-18T15:11:59;96546.69;;;12.97;66.53
56668;BME280;42542;48.360;10.958;2023-02-18T15:15:03;96548.53;;;12.96;66.52
56668;BME280;42542;48.360;10.958;2023-02-18T15:18:15;96564.78;;;12.95;66.40
56668;BME280;42542;48.360;10.958;2023-02-18T15:21:25;96559.59;;;12.93;66.50
56668;BME280;42542;48.360;10.958;2023-02-18T15:24:36;96563.94;;;12.94;66.79
56668;BME280;42542;48.360;10.958;2023-02-18T15:27:41;96557.75;;;12.94;66.83
56668;BME280;42542;48.360;10.958;2023-02-18T15:30:46;96569.47;;;12.93;66.84
56668;BME280;42542;48.360;10.958;2023-02-18T15:33:47;96562.78;;;12.88;66.87
56668;BME280;42542;48.360;10.958;2023-02-18T15:36:50;96569.00;;;12.89;67.13
56668;BME280;42542;48.360;10.958;2023-02-18T15:39:52;96569.16;;;12.87;67.30
56668;BME280;42542;48.360;10.958;2023-02-18T15:42:57;96561.59;;;12.83;67.69
56668;BME280;42542;48.360;10.958;2023-02-18T15:46:00;96567.16;;;12.81;67.71
56668;BME280;42542;48.360;10.958;2023-02-18T15:49:06;96578.19;;;12.78;68.06
56668;BME280;42542;48.360;10.958;2023-02-18T15:52:08;96579.19;;;12.77;68.04
56668;BME280;42542;48.360;10.958;2023-02-18T15:55:24;96573.00;;;12.77;67.96
56668;BME280;42542;48.360;10.958;2023-02-18T15:58:29;96573.16;;;12.75;67.98
56668;BME280;42542;48.360;10.958;2023-02-18T16:01:31;96569.13;;;12.71;67.78
56668;BME280;42542;48.360;10.958;2023-02-18T16:04:37;96568.47;;;12.69;68.21
56668;BME280;42542;48.360;10.958;2023-02-18T16:07:51;96558.56;;;12.70;68.42
56668;BME280;42542;48.360;10.958;2023-02-18T16:10:55;96550.88;;;12.67;68.84
56668;BME280;42542;48.360;10.958;2023-02-18T16:14:03;96558.06;;;12.66;68.46
56668;BME280;42542;48.360;10.958;2023-02-18T16:17:13;96558.56;;;12.62;68.38
56668;BME280;42542;48.360;10.958;2023-02-18T16:20:24;96555.03;;;12.61;68.55
56668;BME280;42542;48.360;10.958;2023-02-18T16:23:54;96560.22;;;12.55;67.85
56668;BME280;42542;48.360;10.958;2023-02-18T16:27:00;96554.69;;;12.48;67.81
56668;BME280;42542;48.360;10.958;2023-02-18T16:30:13;96559.72;;;12.43;67.37
56668;BME280;42542;48.360;10.958;2023-02-18T16:33:17;96559.03;;;12.41;67.51
56668;BME280;42542;48.360;10.958;2023-02-18T16:36:19;96563.22;;;12.35;67.12
56668;BME280;42542;48.360;10.958;2023-02-18T16:39:23;96562.53;;;12.33;67.15
56668;BME280;42542;48.360;10.958;2023-02-18T16:42:25;96559.34;;;12.30;66.81
56668;BME280;42542;48.360;10.958;2023-02-18T16:45:50;96554.66;;;12.24;66.71
56668;BME280;42542;48.360;10.958;2023-02-18T16:48:53;96558.34;;;12.23;66.78
56668;BME280;42542;48.360;10.958;2023-02-18T16:51:58;96563.16;;;12.19;66.85
56668;BME280;42542;48.360;10.958;2023-02-18T16:55:00;96571.56;;;12.16;67.26
56668;BME280;42542;48.360;10.958;2023-02-18T16:58:02;96569.53;;;12.10;67.04
56668;BME280;42542;48.360;10.958;2023-02-18T17:01:03;96571.38;;;12.09;67.17
56668;BME280;42542;48.360;10.958;2023-02-18T17:04:06;96566.63;;;12.03;67.26
56668;BME280;42542;48.360;10.958;2023-02-18T17:07:11;96578.53;;;12.01;67.47
56668;BME280;42542;48.360;10.958;2023-02-18T17:10:13;96573.66;;;11.96;67.76
56668;BME280;42542;48.360;10.958;2023-02-18T17:13:20;96580.03;;;11.95;67.70
56668;BME280;42542;48.360;10.958;2023-02-18T17:16:22;96584.00;;;11.91;67.42
56668;BME280;42542;48.360;10.958;2023-02-18T17:19:26;96592.06;;;11.91;67.76
56668;BME280;42542;48.360;10.958;2023-02-18T17:22:28;96605.78;;;11.88;67.64
56668;BME280;42542;48.360;10.958;2023-02-18T17:25:37;96599.88;;;11.85;67.78
56668;BME280;42542;48.360;10.958;2023-02-18T17:28:39;96594.03;;;11.81;68.12
56668;BME280;42542;48.360;10.958;2023-02-18T17:31:43;96602.38;;;11.78;67.52
56668;BME280;42542;48.360;10.958;2023-02-18T17:34:47;96590.97;;;11.76;67.87
56668;BME280;42542;48.360;10.958;2023-02-18T17:37:49;96608.88;;;11.76;67.81
56668;BME280;42542;48.360;10.958;2023-02-18T17:40:50;96601.31;;;11.71;68.16
56668;BME280;42542;48.360;10.958;2023-02-18T17:43:52;96607.66;;;11.70;67.71
56668;BME280;42542;48.360;10.958;2023-02-18T17:46:53;96611.81;;;11.64;67.95
56668;BME280;42542;48.360;10.958;2023-02-18T17:49:55;96616.31;;;11.64;68.12
56668;BME280;42542;48.360;10.958;2023-02-18T17:52:57;96619.00;;;11.64;67.91
56668;BME280;42542;48.360;10.958;2023-02-18T17:55:59;96602.75;;;11.57;68.18
56668;BME280;42542;48.360;10.958;2023-02-18T17:59:01;96602.19;;;11.54;68.55
56668;BME280;42542;48.360;10.958;2023-02-18T18:02:02;96602.03;;;11.55;68.48
56668;BME280;42542;48.360;10.958;2023-02-18T18:05:04;96617.41;;;11.53;68.19
56668;BME280;42542;48.360;10.958;2023-02-18T18:08:06;96621.28;;;11.51;68.68
56668;BME280;42542;48.360;10.958;2023-02-18T18:11:12;96616.38;;;11.46;68.86
56668;BME280;42542;48.360;10.958;2023-02-18T18:14:15;96620.72;;;11.47;68.88
56668;BME280;42542;48.360;10.958;2023-02-18T18:17:16;96614.88;;;11.44;69.55